Time;durP1;ratioP1;P1;durP2;ratioP2;P2;SDS_P1;SDS_P2;PMS_P1;PMS_P2;Temp;Humidity;BMP_temperature;BMP_pressure;BME280_temperature;BME280_humidity;BME280_pressure;Samples;Min_cycle;Max_cycle;Signal;HPM_P1;HPM_P2
2023/04/17 00:02:09;;;;;;;13.48;11.43;;;12.10;82.00;;;;;;5018527;28;20021;-82
2023/04/17 00:04:35;;;;;;;14.15;11.43;;;12.10;82.00;;;;;;5018276;28;20392;-82
2023/04/17 00:07:02;;;;;;;14.57;11.68;;;12.20;82.10;;;;;;5017772;28;20053;-82
2023/04/17 00:09:28;;;;;;;13.90;11.45;;;12.10;82.00;;;;;;5020401;28;20566;-82
2023/04/17 00:11:54;;;;;;;14.10;11.70;;;12.10;82.00;;;;;;5019736;28;20017;-82
2023/04/17 00:14:20;;;;;;;14.52;12.07;;;12.10;82.00;;;;;;5019885;28;20040;-82
2023/04/17 00:16:45;;;;;;;14.50;11.75;;;12.10;82.00;;;;;;5019050;28;20116;-83
2023/04/17 00:19:11;;;;;;;14.63;12.15;;;12.10;82.00;;;;;;5019309;28;20032;-82
2023/04/17 00:21:36;;;;;;;14.40;12.25;;;12.10;82.00;;;;;;5018473;28;20028;-85
2023/04/17 00:24:02;;;;;;;13.90;11.68;;;12.10;82.10;;;;;;5017377;28;20072;-83
2023/04/17 00:26:27;;;;;;;13.52;11.82;;;12.10;82.00;;;;;;5017106;28;20032;-83
2023/04/17 00:28:53;;;;;;;14.32;12.10;;;12.10;82.00;;;;;;5017147;28;20507;-85
2023/04/17 00:31:19;;;;;;;14.02;11.52;;;12.10;82.00;;;;;;5016853;28;20423;-83
2023/04/17 00:33:45;;;;;;;13.63;11.52;;;12.10;82.00;;;;;;5016701;28;20037;-83
2023/04/17 00:36:12;;;;;;;13.68;11.93;;;12.10;82.00;;;;;;5017271;28;20513;-82
2023/04/17 00:38:38;;;;;;;15.23;12.68;;;12.10;82.00;;;;;;5016725;28;20103;-83
2023/04/17 00:41:04;;;;;;;14.57;12.05;;;12.10;82.00;;;;;;5029232;28;20025;-86
2023/04/17 00:43:29;;;;;;;15.50;11.73;;;12.10;82.00;;;;;;5035946;28;20044;-85
2023/04/17 00:45:55;;;;;;;13.73;11.80;;;12.10;82.00;;;;;;5035758;28;20029;-87
2023/04/17 00:48:22;;;;;;;13.68;11.73;;;12.10;82.20;;;;;;5035045;28;20026;-84
2023/04/17 00:50:49;;;;;;;14.25;11.93;;;12.10;82.10;;;;;;5033927;28;20459;-85
2023/04/17 00:53:16;;;;;;;14.50;12.05;;;12.10;82.00;;;;;;5034597;28;20025;-86
2023/04/17 00:55:43;;;;;;;14.07;11.98;;;12.10;82.00;;;;;;5034160;28;20021;-86
2023/04/17 00:58:10;;;;;;;15.30;12.15;;;12.10;82.00;;;;;;5033207;28;20033;-83
2023/04/17 01:00:36;;;;;;;14.23;12.00;;;12.10;82.00;;;;;;5033039;28;20018;-84
2023/04/17 01:03:02;;;;;;;14.52;11.85;;;12.10;82.00;;;;;;5032433;28;20057;-84
2023/04/17 01:05:27;;;;;;;13.13;11.70;;;12.10;82.00;;;;;;5032610;28;20037;-84
2023/04/17 01:07:54;;;;;;;15.32;12.85;;;12.10;82.00;;;;;;5031443;28;20013;-83
2023/04/17 01:10:20;;;;;;;14.25;11.95;;;12.10;82.10;;;;;;5031053;28;20053;-84
2023/04/17 01:12:48;;;;;;;14.98;12.05;;;12.10;82.10;;;;;;5030967;28;20010;-83
2023/04/17 01:15:13;;;;;;;14.98;12.50;;;12.10;82.00;;;;;;5030443;28;20026;-83
2023/04/17 01:17:39;;;;;;;15.40;12.13;;;12.10;82.00;;;;;;5028719;28;20032;-82
2023/04/17 01:20:10;;;;;;;14.88;12.00;;;12.20;82.10;;;;;;5028385;28;20021;-84
2023/04/17 01:22:36;;;;;;;13.93;11.88;;;12.10;82.10;;;;;;5020659;28;20029;-83
2023/04/17 01:25:02;;;;;;;14.63;12.38;;;12.10;82.00;;;;;;5020732;28;20394;-80
2023/04/17 01:27:28;;;;;;;14.57;11.90;;;12.00;82.00;;;;;;5020085;28;20112;-83
2023/04/17 01:29:53;;;;;;;14.82;12.25;;;12.10;82.00;;;;;;5027478;28;20029;-84
2023/04/17 01:32:19;;;;;;;15.55;12.57;;;12.10;82.00;;;;;;5049081;28;20037;-86
2023/04/17 01:34:44;;;;;;;14.20;11.70;;;12.10;82.00;;;;;;5030084;28;20070;-83
2023/04/17 01:37:10;;;;;;;14.93;12.60;;;12.10;82.00;;;;;;5017570;28;20028;-87
2023/04/17 01:39:36;;;;;;;16.15;12.48;;;12.10;82.00;;;;;;5035121;28;20040;-85
2023/04/17 01:42:01;;;;;;;14.60;12.07;;;12.10;82.10;;;;;;5033976;28;20044;-83
2023/04/17 01:44:27;;;;;;;15.23;12.63;;;12.10;82.00;;;;;;5033941;28;20084;-85
2023/04/17 01:46:52;;;;;;;14.48;11.95;;;12.10;82.00;;;;;;5032825;28;20025;-85
2023/04/17 01:49:19;;;;;;;14.68;12.52;;;12.10;82.00;;;;;;5032283;28;20029;-85
2023/04/17 01:51:44;;;;;;;13.68;11.75;;;12.10;82.00;;;;;;5032315;28;20018;-85
2023/04/17 01:54:10;;;;;;;14.65;12.35;;;12.10;82.00;;;;;;5049589;28;20555;-83
2023/04/17 01:56:35;;;;;;;16.13;12.30;;;12.10;82.10;;;;;;5030914;28;20006;-83
2023/04/17 01:59:01;;;;;;;13.85;11.82;;;12.10;82.10;;;;;;5027469;28;20047;-83
2023/04/17 02:01:26;;;;;;;14.02;11.77;;;12.10;82.00;;;;;;5017824;28;20076;-83
2023/04/17 02:03:52;;;;;;;14.98;12.20;;;12.10;82.00;;;;;;5026099;28;20040;-83
2023/04/17 02:06:17;;;;;;;14.57;12.40;;;12.10;82.00;;;;;;5035470;28;20031;-85
2023/04/17 02:08:43;;;;;;;14.38;12.35;;;12.10;82.00;;;;;;5039690;28;20090;-85
2023/04/17 02:11:09;;;;;;;13.65;11.63;;;12.10;82.10;;;;;;5026802;28;20056;-83
2023/04/17 02:13:35;;;;;;;15.15;12.50;;;12.10;82.00;;;;;;5026564;28;20092;-84
2023/04/17 02:16:00;;;;;;;14.13;12.13;;;12.10;82.00;;;;;;5027227;28;20058;-86
2023/04/17 02:18:26;;;;;;;14.52;12.50;;;12.10;82.00;;;;;;5026679;28;20079;-85
2023/04/17 02:20:51;;;;;;;13.77;12.25;;;12.10;82.00;;;;;;5025370;28;20025;-83
2023/04/17 02:23:17;;;;;;;14.15;11.73;;;12.10;82.00;;;;;;5025372;28;20022;-83
2023/04/17 02:25:42;;;;;;;14.80;12.57;;;12.10;82.00;;;;;;5025393;28;20076;-84
2023/04/17 02:28:08;;;;;;;14.55;12.00;;;12.10;81.90;;;;;;5025619;28;20057;-83
2023/04/17 02:30:33;;;;;;;13.90;11.80;;;12.10;81.90;;;;;;5024811;28;20021;-84
2023/04/17 02:32:59;;;;;;;14.05;11.80;;;12.10;82.00;;;;;;5023075;28;20563;-79
2023/04/17 02:35:26;;;;;;;15.32;12.60;;;12.10;81.90;;;;;;5015727;28;20028;-83
2023/04/17 02:37:52;;;;;;;14.07;11.73;;;12.10;82.00;;;;;;5042247;28;20516;-84
2023/04/17 02:40:18;;;;;;;15.13;12.30;;;12.10;82.00;;;;;;5023132;28;20029;-83
2023/04/17 02:42:43;;;;;;;14.50;11.68;;;12.10;81.90;;;;;;5022167;28;20519;-84
2023/04/17 02:45:09;;;;;;;14.43;11.98;;;12.10;81.90;;;;;;5021518;28;20040;-82
2023/04/17 02:47:35;;;;;;;15.07;12.10;;;12.10;81.90;;;;;;5018381;28;20036;-82
2023/04/17 02:50:01;;;;;;;15.10;12.45;;;12.10;81.90;;;;;;5016450;28;20022;-81
2023/04/17 02:52:28;;;;;;;14.85;12.50;;;12.10;81.90;;;;;;5014839;28;20018;-83
2023/04/17 02:54:55;;;;;;;14.23;12.00;;;12.10;81.90;;;;;;5019883;28;20053;-84
2023/04/17 02:57:21;;;;;;;14.95;12.40;;;12.10;81.90;;;;;;5020959;28;20460;-83
2023/04/17 02:59:46;;;;;;;14.20;12.13;;;12.10;81.90;;;;;;5020226;28;20120;-83
2023/04/17 03:02:13;;;;;;;15.38;11.88;;;12.10;81.90;;;;;;5024152;28;20099;-83
2023/04/17 03:04:39;;;;;;;13.93;11.88;;;12.10;81.90;;;;;;5023555;28;20129;-85
2023/04/17 03:07:05;;;;;;;14.98;12.65;;;12.10;81.90;;;;;;5024233;28;20498;-82
2023/04/17 03:09:32;;;;;;;15.40;12.27;;;12.10;81.80;;;;;;5018820;28;20094;-84
2023/04/17 03:11:57;;;;;;;14.40;12.02;;;12.10;81.80;;;;;;5019521;28;20470;-83
2023/04/17 03:14:23;;;;;;;15.02;11.77;;;12.10;81.80;;;;;;5037711;28;20112;-82
2023/04/17 03:16:48;;;;;;;15.63;12.07;;;12.10;81.80;;;;;;5023436;28;20665;-83
2023/04/17 03:19:14;;;;;;;14.93;11.80;;;12.10;81.80;;;;;;5020703;28;20167;-83
2023/04/17 03:21:39;;;;;;;14.48;11.88;;;12.10;81.80;;;;;;5019699;28;20367;-83
2023/04/17 03:24:05;;;;;;;14.20;11.25;;;12.10;81.80;;;;;;5018369;28;20033;-81
2023/04/17 03:26:33;;;;;;;14.57;11.73;;;12.10;81.80;;;;;;5016410;28;20040;-87
2023/04/17 03:28:58;;;;;;;14.20;11.98;;;12.10;81.80;;;;;;5035498;28;20467;-81
2023/04/17 03:31:26;;;;;;;14.32;11.68;;;12.10;81.80;;;;;;5015150;28;20033;-84
2023/04/17 03:33:51;;;;;;;14.82;12.07;;;12.10;81.80;;;;;;5020714;28;20033;-81
2023/04/17 03:36:17;;;;;;;14.32;12.13;;;12.20;81.90;;;;;;5020692;28;20473;-80
2023/04/17 03:38:42;;;;;;;15.23;12.18;;;12.10;81.80;;;;;;5020834;28;20030;-82
2023/04/17 03:41:09;;;;;;;13.98;12.00;;;12.10;81.80;;;;;;5019487;28;20767;-81
2023/04/17 03:43:34;;;;;;;15.25;12.45;;;12.10;81.80;;;;;;5021276;28;20036;-81
2023/04/17 03:46:00;;;;;;;14.73;11.93;;;12.10;81.80;;;;;;5021596;28;20033;-82
2023/04/17 03:48:26;;;;;;;14.95;11.98;;;12.10;81.80;;;;;;5019307;28;20018;-81
2023/04/17 03:50:52;;;;;;;14.45;12.10;;;12.10;81.80;;;;;;5021708;28;20036;-82
2023/04/17 03:53:17;;;;;;;14.27;12.35;;;12.10;81.80;;;;;;5019785;28;20023;-82
2023/04/17 03:55:52;;;;;;;14.10;11.60;;;12.20;81.90;;;;;;5018895;28;20252;-82
2023/04/17 03:58:18;;;;;;;14.65;11.57;;;11.90;81.70;;;;;;5019724;28;20029;-82
2023/04/17 04:00:48;;;;;;;14.10;11.93;;;12.10;81.70;;;;;;5017325;28;20044;-85
2023/04/17 04:03:14;;;;;;;14.57;12.10;;;12.00;81.70;;;;;;5017642;28;20033;-82
2023/04/17 04:05:44;;;;;;;15.02;12.50;;;12.20;81.90;;;;;;5013550;28;20038;-79
2023/04/17 04:08:10;;;;;;;14.20;11.63;;;12.00;81.70;;;;;;4996913;28;20060;-79
2023/04/17 04:10:36;;;;;;;14.30;11.95;;;12.10;81.80;;;;;;4995982;28;20050;-80
2023/04/17 04:13:01;;;;;;;15.45;12.93;;;12.10;81.80;;;;;;4996778;28;20028;-80
2023/04/17 04:15:29;;;;;;;14.05;11.75;;;12.10;81.70;;;;;;5005684;28;20033;-85
2023/04/17 04:17:54;;;;;;;13.18;11.13;;;12.10;81.80;;;;;;5005960;28;20482;-82
2023/04/17 04:20:21;;;;;;;14.13;11.45;;;12.10;81.70;;;;;;5024637;28;20069;-83
2023/04/17 04:22:47;;;;;;;14.13;12.00;;;12.10;81.70;;;;;;5033913;28;20025;-82
2023/04/17 04:25:14;;;;;;;14.48;11.95;;;12.10;81.70;;;;;;5045129;28;20033;-83
2023/04/17 04:27:44;;;;;;;14.50;11.93;;;12.10;81.70;;;;;;5044615;28;20029;-83
2023/04/17 04:30:10;;;;;;;14.20;11.90;;;12.10;81.80;;;;;;5044006;28;20049;-82
2023/04/17 04:32:36;;;;;;;14.00;11.60;;;12.10;81.70;;;;;;5018244;28;20409;-81
2023/04/17 04:35:02;;;;;;;14.82;11.88;;;12.10;81.80;;;;;;5020636;28;20033;-80
2023/04/17 04:37:31;;;;;;;14.45;11.80;;;12.10;81.80;;;;;;5021139;28;20060;-79
2023/04/17 04:40:00;;;;;;;13.98;11.68;;;12.10;81.80;;;;;;5020544;28;20025;-80
2023/04/17 04:42:27;;;;;;;14.70;11.95;;;12.10;81.80;;;;;;5020405;28;20025;-80
2023/04/17 04:44:53;;;;;;;14.27;11.90;;;12.10;81.70;;;;;;5019902;28;20056;-84
2023/04/17 04:47:18;;;;;;;14.02;11.85;;;12.10;81.70;;;;;;5020145;28;20052;-82
2023/04/17 04:49:44;;;;;;;14.05;11.95;;;12.10;81.70;;;;;;5016138;28;20079;-81
2023/04/17 04:52:10;;;;;;;14.07;11.77;;;12.10;81.70;;;;;;5019198;28;20489;-81
2023/04/17 04:54:35;;;;;;;13.38;11.45;;;12.10;81.70;;;;;;5019806;28;20033;-86
2023/04/17 04:57:01;;;;;;;14.73;11.70;;;12.10;81.70;;;;;;5014765;28;20072;-82
2023/04/17 04:59:27;;;;;;;14.25;11.23;;;12.10;81.70;;;;;;5016845;28;20037;-80
2023/04/17 05:01:52;;;;;;;14.98;12.10;;;12.10;81.70;;;;;;5017134;28;20366;-83
2023/04/17 05:04:18;;;;;;;14.15;11.82;;;12.10;81.70;;;;;;5021129;28;20097;-82
2023/04/17 05:06:46;;;;;;;14.35;12.10;;;12.10;81.70;;;;;;5021985;28;20057;-83
2023/04/17 05:09:12;;;;;;;14.38;11.73;;;12.10;81.60;;;;;;5016496;28;20029;-85
2023/04/17 05:11:37;;;;;;;14.05;11.38;;;12.10;81.60;;;;;;5016657;28;20078;-82
2023/04/17 05:14:03;;;;;;;13.95;11.73;;;12.10;81.60;;;;;;5016259;28;20444;-82
2023/04/17 05:16:28;;;;;;;15.48;12.20;;;12.10;81.50;;;;;;5017657;28;20022;-85
2023/04/17 05:18:54;;;;;;;13.30;11.57;;;12.10;81.70;;;;;;5017532;28;20694;-80
2023/04/17 05:21:20;;;;;;;13.70;11.73;;;12.10;81.60;;;;;;5019275;28;20120;-82
2023/04/17 05:23:45;;;;;;;14.85;11.95;;;12.10;81.60;;;;;;5019302;28;20049;-81
2023/04/17 05:26:11;;;;;;;15.45;12.25;;;12.10;81.50;;;;;;5016528;28;20483;-83
2023/04/17 05:28:37;;;;;;;15.18;12.10;;;12.10;82.10;;;;;;5016523;28;20524;-83
2023/04/17 05:31:02;;;;;;;15.55;11.93;;;12.10;81.50;;;;;;5013516;28;20030;-83
2023/04/17 05:33:28;;;;;;;15.40;12.05;;;12.10;81.50;;;;;;5018839;28;20029;-84
2023/04/17 05:35:53;;;;;;;14.05;11.70;;;12.10;81.50;;;;;;5036555;28;20029;-81
2023/04/17 05:38:19;;;;;;;15.48;12.63;;;12.10;81.50;;;;;;5015795;28;20018;-82
2023/04/17 05:40:44;;;;;;;16.05;12.27;;;12.10;81.50;;;;;;5032304;28;20040;-83
2023/04/17 05:43:11;;;;;;;16.75;11.80;;;12.10;81.50;;;;;;5014741;28;20053;-84
2023/04/17 05:45:36;;;;;;;14.55;11.30;;;12.10;81.50;;;;;;5014842;28;20390;-82
2023/04/17 05:48:02;;;;;;;15.02;11.02;;;12.10;81.50;;;;;;5014789;28;20029;-84
2023/04/17 05:50:28;;;;;;;15.02;12.07;;;12.10;81.50;;;;;;5032408;28;20025;-83
2023/04/17 05:52:55;;;;;;;16.25;12.23;;;12.10;81.50;;;;;;5015479;28;20045;-83
2023/04/17 05:55:21;;;;;;;14.68;11.73;;;12.10;81.50;;;;;;5015814;28;20367;-83
2023/04/17 05:57:46;;;;;;;16.08;12.35;;;12.10;81.50;;;;;;5015413;28;20065;-83
2023/04/17 06:00:13;;;;;;;15.20;11.57;;;12.10;81.50;;;;;;5032191;28;20026;-82
2023/04/17 06:02:41;;;;;;;14.32;11.70;;;12.10;81.40;;;;;;5014335;28;20022;-82
2023/04/17 06:05:08;;;;;;;15.38;12.30;;;12.10;81.40;;;;;;5015516;28;20029;-82
2023/04/17 06:07:34;;;;;;;16.00;12.68;;;12.10;81.50;;;;;;5016181;28;20055;-83
2023/04/17 06:10:00;;;;;;;16.40;11.90;;;12.10;81.40;;;;;;5015936;28;20034;-83
2023/04/17 06:12:26;;;;;;;15.23;12.15;;;12.10;81.40;;;;;;5015559;28;20145;-83
2023/04/17 06:14:51;;;;;;;13.80;11.35;;;12.10;81.40;;;;;;5015513;28;20167;-82
2023/04/17 06:17:17;;;;;;;14.60;12.30;;;12.10;81.40;;;;;;5033250;28;20013;-83
2023/04/17 06:19:43;;;;;;;14.88;11.38;;;12.00;81.30;;;;;;5032996;28;20035;-83
2023/04/17 06:22:08;;;;;;;16.33;12.07;;;12.10;81.90;;;;;;5014978;28;20033;-84
2023/04/17 06:24:35;;;;;;;14.05;11.85;;;12.10;81.30;;;;;;5032660;28;20061;-82
2023/04/17 06:27:02;;;;;;;15.40;12.35;;;12.10;81.40;;;;;;5031687;28;20032;-83
2023/04/17 06:29:28;;;;;;;15.70;11.80;;;12.10;81.50;;;;;;5014298;28;20031;-82
2023/04/17 06:31:53;;;;;;;15.68;11.55;;;12.10;81.40;;;;;;5014443;28;20108;-83
2023/04/17 06:34:19;;;;;;;15.02;12.02;;;12.20;81.40;;;;;;5018810;28;20044;-83
2023/04/17 06:36:45;;;;;;;15.70;12.30;;;12.20;81.40;;;;;;5019055;28;20048;-82
2023/04/17 06:39:10;;;;;;;16.45;12.40;;;12.20;81.40;;;;;;5036626;28;20026;-82
2023/04/17 06:41:36;;;;;;;14.60;11.90;;;12.20;81.30;;;;;;5036397;28;20034;-83
2023/04/17 06:44:01;;;;;;;14.15;11.65;;;12.20;81.30;;;;;;5018632;28;20128;-82
2023/04/17 06:46:27;;;;;;;14.43;11.60;;;12.20;81.40;;;;;;5016246;28;20072;-83
2023/04/17 06:48:56;;;;;;;14.65;12.05;;;12.20;81.40;;;;;;5017829;28;20056;-83
2023/04/17 06:51:24;;;;;;;16.50;12.88;;;12.20;81.50;;;;;;5018302;28;20310;-82
2023/04/17 06:53:49;;;;;;;14.38;12.38;;;12.20;81.30;;;;;;5017333;28;20036;-83
2023/04/17 06:56:15;;;;;;;16.45;12.20;;;12.20;81.30;;;;;;5017943;28;20460;-83
2023/04/17 06:58:44;;;;;;;15.38;12.23;;;12.20;81.30;;;;;;5017568;28;20037;-82
2023/04/17 07:01:11;;;;;;;14.65;11.77;;;12.20;81.30;;;;;;5017300;28;20026;-83
2023/04/17 07:03:40;;;;;;;15.20;11.93;;;12.20;81.30;;;;;;5018069;28;20145;-83
2023/04/17 07:06:06;;;;;;;17.80;11.95;;;12.20;81.20;;;;;;5018173;28;20037;-82
2023/04/17 07:08:32;;;;;;;14.50;11.77;;;12.20;81.20;;;;;;5017756;28;20025;-83
2023/04/17 07:10:58;;;;;;;16.77;12.75;;;12.20;81.20;;;;;;5017501;28;20133;-83
2023/04/17 07:13:23;;;;;;;15.75;12.18;;;12.20;81.20;;;;;;5035533;28;20033;-83
2023/04/17 07:15:53;;;;;;;14.40;12.18;;;12.20;81.10;;;;;;5017523;28;20081;-82
2023/04/17 07:18:20;;;;;;;15.45;11.90;;;12.20;81.10;;;;;;5034925;28;20025;-83
2023/04/17 07:20:46;;;;;;;14.52;11.85;;;12.20;81.10;;;;;;5016904;28;20530;-82
2023/04/17 07:23:11;;;;;;;14.98;12.10;;;12.30;81.10;;;;;;5034857;28;20129;-83
2023/04/17 07:25:37;;;;;;;14.43;12.20;;;12.20;81.00;;;;;;5016680;28;20022;-82
2023/04/17 07:28:02;;;;;;;14.57;11.65;;;12.30;81.00;;;;;;5034693;28;20393;-83
2023/04/17 07:30:28;;;;;;;14.55;11.95;;;12.30;81.00;;;;;;5034598;28;20029;-83
2023/04/17 07:32:53;;;;;;;14.05;11.52;;;12.30;81.00;;;;;;5016646;28;20022;-83
2023/04/17 07:35:19;;;;;;;14.00;11.32;;;12.30;81.00;;;;;;5017167;28;20478;-83
2023/04/17 07:37:45;;;;;;;15.35;12.23;;;12.30;81.00;;;;;;5017023;28;20021;-83
2023/04/17 07:40:10;;;;;;;14.48;11.30;;;12.30;80.90;;;;;;5034402;28;20029;-82
2023/04/17 07:42:36;;;;;;;14.75;11.85;;;12.30;80.90;;;;;;5016759;28;20068;-83
2023/04/17 07:45:03;;;;;;;14.65;11.90;;;12.20;80.90;;;;;;5015649;28;20025;-83
2023/04/17 07:47:29;;;;;;;14.98;12.10;;;12.30;80.90;;;;;;5034575;28;20083;-83
2023/04/17 07:49:55;;;;;;;14.43;11.30;;;12.30;80.80;;;;;;5016599;28;20028;-83
2023/04/17 07:52:20;;;;;;;13.98;11.77;;;12.30;80.80;;;;;;5038256;28;20022;-84
2023/04/17 07:54:46;;;;;;;15.32;11.27;;;12.30;80.80;;;;;;5020260;28;20022;-84
2023/04/17 07:57:13;;;;;;;14.50;11.38;;;12.30;81.30;;;;;;5038369;28;20030;-84
2023/04/17 07:59:38;;;;;;;15.00;12.23;;;12.30;80.70;;;;;;5037643;28;20021;-84
2023/04/17 08:02:04;;;;;;;14.50;11.60;;;12.30;80.60;;;;;;5037394;28;20112;-83
2023/04/17 08:04:30;;;;;;;13.65;10.95;;;12.30;80.50;;;;;;5037445;28;20033;-81
2023/04/17 08:06:55;;;;;;;14.30;11.82;;;12.40;80.50;;;;;;5016282;28;20032;-83
2023/04/17 08:09:21;;;;;;;14.00;11.40;;;12.40;80.40;;;;;;5017012;28;20025;-83
2023/04/17 08:11:46;;;;;;;13.63;11.13;;;12.50;80.30;;;;;;5017068;28;20105;-83
2023/04/17 08:14:14;;;;;;;14.23;10.73;;;12.60;80.30;;;;;;5019230;28;20025;-83
2023/04/17 08:16:39;;;;;;;13.13;10.38;;;12.60;80.10;;;;;;5036861;28;20454;-83
2023/04/17 08:19:05;;;;;;;14.85;11.82;;;12.60;80.10;;;;;;5036930;28;20068;-83
2023/04/17 08:21:31;;;;;;;13.15;10.70;;;12.60;80.00;;;;;;5037004;28;20083;-84
2023/04/17 08:23:56;;;;;;;12.45;10.32;;;12.60;79.90;;;;;;5018606;28;20029;-83
2023/04/17 08:26:22;;;;;;;14.23;11.15;;;12.60;79.90;;;;;;5036022;28;20056;-83
2023/04/17 08:28:47;;;;;;;14.05;10.95;;;12.60;79.80;;;;;;5018180;28;20304;-83
2023/04/17 08:31:12;;;;;;;13.10;11.05;;;12.60;79.80;;;;;;5018344;28;20018;-83
2023/04/17 08:33:38;;;;;;;14.13;10.43;;;12.60;79.80;;;;;;5018195;28;20108;-83
2023/04/17 08:36:04;;;;;;;15.05;11.85;;;12.60;79.80;;;;;;5035834;28;20021;-83
2023/04/17 08:38:30;;;;;;;14.60;11.40;;;12.70;79.80;;;;;;5017806;28;20116;-83
2023/04/17 08:41:00;;;;;;;12.98;10.18;;;12.60;79.70;;;;;;5017435;28;20034;-83
2023/04/17 08:43:28;;;;;;;12.88;10.75;;;12.70;79.60;;;;;;5017226;28;20022;-83
2023/04/17 08:45:55;;;;;;;14.07;10.75;;;12.70;79.50;;;;;;5037898;28;20026;-84
2023/04/17 08:48:22;;;;;;;12.38;10.27;;;12.70;79.50;;;;;;5020081;28;20382;-84
2023/04/17 08:50:49;;;;;;;12.15;9.80;;;12.70;79.40;;;;;;5037268;28;20083;-84
2023/04/17 08:53:15;;;;;;;13.45;10.35;;;12.80;79.40;;;;;;5019059;28;20104;-83
2023/04/17 08:55:41;;;;;;;12.20;9.82;;;12.80;79.30;;;;;;5036464;28;20032;-83
2023/04/17 08:58:08;;;;;;;12.75;9.70;;;12.80;79.20;;;;;;5019143;28;20025;-83
2023/04/17 09:00:38;;;;;;;12.70;10.18;;;12.80;79.20;;;;;;5018626;28;20374;-83
2023/04/17 09:03:10;;;;;;;12.35;9.82;;;12.80;79.10;;;;;;5036252;28;20048;-83
2023/04/17 09:05:38;;;;;;;13.98;10.57;;;12.80;79.10;;;;;;5018374;28;20021;-83
2023/04/17 09:08:22;;;;;;;12.15;9.77;;;12.80;79.00;;;;;;5018209;28;20025;-84
2023/04/17 09:10:53;;;;;;;12.05;9.82;;;12.90;79.00;;;;;;5017699;28;20434;-82
2023/04/17 09:13:21;;;;;;;12.27;10.20;;;12.90;79.00;;;;;;5036006;28;20022;-84
2023/04/17 09:16:02;;;;;;;11.70;9.50;;;12.90;79.00;;;;;;5017961;28;20030;-83
2023/04/17 09:18:30;;;;;;;11.85;9.70;;;12.90;78.90;;;;;;5017916;28;20029;-83
2023/04/17 09:20:59;;;;;;;12.20;9.77;;;12.90;78.90;;;;;;5017880;28;20124;-83
2023/04/17 09:23:26;;;;;;;12.35;9.80;;;12.90;78.90;;;;;;5017173;28;20493;-83
2023/04/17 09:26:06;;;;;;;12.80;9.70;;;12.90;78.80;;;;;;5032979;28;20040;-83
2023/04/17 09:28:35;;;;;;;11.47;9.30;;;12.90;78.80;;;;;;5016406;28;20022;-82
2023/04/17 09:31:04;;;;;;;12.52;9.93;;;12.90;78.80;;;;;;5034390;28;20022;-82
2023/04/17 09:33:30;;;;;;;12.57;9.82;;;13.00;78.70;;;;;;5014372;28;20044;-83
2023/04/17 09:36:16;;;;;;;12.75;10.10;;;13.00;78.70;;;;;;5034068;28;20037;-83
2023/04/17 09:38:41;;;;;;;12.75;10.15;;;13.00;78.60;;;;;;5015631;28;20040;-83
2023/04/17 09:41:28;;;;;;;11.73;9.32;;;13.00;78.60;;;;;;5014691;28;20390;-83
2023/04/17 09:44:00;;;;;;;12.60;9.63;;;13.10;78.60;;;;;;5014492;28;20029;-82
2023/04/17 09:46:44;;;;;;;12.18;9.13;;;13.10;78.50;;;;;;5016001;28;20505;-82
2023/04/17 09:49:18;;;;;;;12.52;9.57;;;13.10;78.50;;;;;;5034020;28;20040;-82
2023/04/17 09:51:48;;;;;;;11.80;9.57;;;13.20;78.40;;;;;;5015284;28;20109;-82
2023/04/17 09:54:15;;;;;;;11.95;9.52;;;13.20;78.40;;;;;;5015654;28;20067;-82
2023/04/17 09:56:42;;;;;;;11.93;9.50;;;13.20;78.30;;;;;;5016227;28;20390;-83
2023/04/17 09:59:08;;;;;;;12.25;9.38;;;13.20;78.30;;;;;;5015907;28;20096;-83
2023/04/17 10:01:35;;;;;;;11.73;9.25;;;13.20;78.20;;;;;;5015345;28;20021;-83
2023/04/17 10:04:03;;;;;;;12.57;9.60;;;13.20;78.20;;;;;;5033561;28;20022;-83
2023/04/17 10:06:33;;;;;;;11.38;9.18;;;13.20;78.20;;;;;;5015215;28;20117;-83
2023/04/17 10:08:59;;;;;;;11.82;9.20;;;13.30;78.20;;;;;;5015469;28;20048;-83
2023/04/17 10:11:29;;;;;;;10.80;8.98;;;13.30;78.20;;;;;;5032843;28;20025;-83
2023/04/17 10:14:11;;;;;;;10.73;8.98;;;13.30;78.10;;;;;;5033074;28;20025;-83
2023/04/17 10:16:38;;;;;;;11.77;9.07;;;13.30;78.20;;;;;;5015190;28;20021;-82
2023/04/17 10:19:30;;;;;;;11.38;9.23;;;13.30;78.10;;;;;;5015131;28;20445;-82
2023/04/17 10:22:18;;;;;;;11.02;8.82;;;13.30;78.10;;;;;;5014020;28;20047;-83
2023/04/17 10:24:51;;;;;;;11.48;9.02;;;13.30;78.10;;;;;;5032412;28;20029;-83
2023/04/17 10:27:25;;;;;;;11.38;8.82;;;13.40;78.10;;;;;;5033007;28;20052;-82
2023/04/17 10:29:55;;;;;;;10.82;8.88;;;13.40;78.50;;;;;;5032453;28;20470;-83
2023/04/17 10:32:25;;;;;;;11.90;8.95;;;13.40;77.90;;;;;;5032696;28;20052;-82
2023/04/17 10:34:52;;;;;;;11.05;8.75;;;13.40;77.90;;;;;;5014310;28;20060;-83
2023/04/17 10:37:21;;;;;;;12.23;8.82;;;13.50;77.80;;;;;;5032682;28;20104;-82
2023/04/17 10:39:50;;;;;;;11.57;8.85;;;13.50;77.80;;;;;;5032236;28;20030;-83
2023/04/17 10:42:20;;;;;;;11.98;8.18;;;13.50;77.70;;;;;;5013861;28;20021;-83
2023/04/17 10:44:46;;;;;;;10.50;8.45;;;13.50;78.20;;;;;;5014161;28;20034;-82
2023/04/17 10:47:15;;;;;;;10.55;8.45;;;13.50;77.60;;;;;;5031985;28;20025;-82
2023/04/17 10:49:58;;;;;;;10.70;8.77;;;13.50;77.60;;;;;;5014181;28;20401;-83
2023/04/17 10:52:43;;;;;;;11.02;8.48;;;13.50;77.50;;;;;;5031353;28;20025;-83
2023/04/17 10:55:14;;;;;;;10.38;8.30;;;13.60;77.60;;;;;;5014126;28;20030;-83
2023/04/17 10:57:52;;;;;;;9.70;7.82;;;13.60;77.60;;;;;;5013838;28;20029;-83
2023/04/17 11:00:19;;;;;;;10.05;8.00;;;13.60;77.50;;;;;;5013632;28;20393;-83
2023/04/17 11:02:46;;;;;;;9.88;7.93;;;13.60;77.40;;;;;;5031219;28;20029;-82
2023/04/17 11:05:12;;;;;;;10.45;8.13;;;13.60;77.40;;;;;;5013552;28;20022;-83
2023/04/17 11:07:38;;;;;;;10.80;8.57;;;13.60;77.40;;;;;;5013737;28;20022;-84
2023/04/17 11:10:08;;;;;;;10.68;8.15;;;13.60;77.40;;;;;;5031728;28;20085;-80
2023/04/17 11:12:34;;;;;;;10.30;7.95;;;13.60;77.50;;;;;;5013640;28;20041;-83
2023/04/17 11:15:03;;;;;;;9.93;7.82;;;13.60;77.50;;;;;;5031443;28;20022;-83
2023/04/17 11:17:28;;;;;;;10.02;7.88;;;13.60;77.50;;;;;;5013621;28;20516;-83
2023/04/17 11:19:56;;;;;;;10.75;8.85;;;13.60;77.50;;;;;;5017077;28;20033;-83
2023/04/17 11:22:21;;;;;;;9.82;7.72;;;13.60;77.40;;;;;;5035014;28;20029;-83
2023/04/17 11:24:50;;;;;;;10.35;8.23;;;13.70;77.60;;;;;;5017090;28;20084;-82
2023/04/17 11:27:16;;;;;;;10.15;8.05;;;13.70;77.40;;;;;;5016926;28;20022;-83
2023/04/17 11:29:43;;;;;;;9.68;7.53;;;13.70;77.30;;;;;;5017021;28;20033;-83
2023/04/17 11:32:11;;;;;;;10.25;7.85;;;13.70;77.40;;;;;;5035971;28;20025;-82
2023/04/17 11:34:37;;;;;;;10.35;7.57;;;13.70;77.40;;;;;;5021946;28;20044;-84
2023/04/17 11:37:03;;;;;;;9.75;7.63;;;13.70;77.40;;;;;;5020785;28;20084;-83
2023/04/17 11:39:30;;;;;;;10.80;7.63;;;13.60;77.50;;;;;;5038646;28;20492;-84
2023/04/17 11:41:56;;;;;;;9.70;7.20;;;13.60;77.40;;;;;;5020542;28;20120;-84
2023/04/17 11:44:23;;;;;;;9.32;7.20;;;13.70;77.50;;;;;;5020880;28;20068;-83
2023/04/17 11:46:55;;;;;;;10.15;7.63;;;13.70;77.50;;;;;;5020322;28;20486;-83
2023/04/17 11:49:37;;;;;;;9.75;7.50;;;13.70;77.40;;;;;;5020086;28;20036;-84
2023/04/17 11:52:04;;;;;;;9.52;6.93;;;13.70;77.40;;;;;;5019679;28;20025;-83
2023/04/17 11:54:33;;;;;;;9.73;7.68;;;13.70;77.30;;;;;;5020056;28;20029;-84
2023/04/17 11:57:05;;;;;;;9.05;6.50;;;13.70;77.50;;;;;;5019991;28;20386;-83
2023/04/17 11:59:36;;;;;;;9.38;6.95;;;13.60;77.50;;;;;;5037371;28;20097;-83
2023/04/17 12:02:06;;;;;;;9.18;7.15;;;13.60;77.60;;;;;;5019447;28;20508;-82
2023/04/17 12:04:33;;;;;;;10.48;7.63;;;13.60;77.60;;;;;;5017139;28;20065;-83
2023/04/17 12:07:00;;;;;;;10.07;7.68;;;13.60;77.80;;;;;;5017440;28;20033;-83
2023/04/17 12:09:30;;;;;;;9.50;7.20;;;13.50;77.80;;;;;;5018865;28;20025;-83
2023/04/17 12:11:57;;;;;;;10.20;6.90;;;13.50;77.80;;;;;;5019074;28;20525;-83
2023/04/17 12:14:23;;;;;;;10.10;7.95;;;13.50;77.90;;;;;;5018769;28;20061;-83
2023/04/17 12:16:50;;;;;;;10.00;7.72;;;13.50;77.80;;;;;;5036586;28;20038;-83
2023/04/17 12:19:16;;;;;;;9.20;7.00;;;13.50;77.90;;;;;;5018915;28;20071;-83
2023/04/17 12:21:46;;;;;;;10.15;7.03;;;13.50;78.00;;;;;;5018068;28;20508;-83
2023/04/17 12:24:12;;;;;;;9.80;7.45;;;13.50;77.90;;;;;;5036188;28;20390;-83
2023/04/17 12:26:46;;;;;;;9.40;7.45;;;13.50;78.00;;;;;;5018247;28;20068;-84
2023/04/17 12:29:11;;;;;;;9.18;7.10;;;13.40;78.00;;;;;;5038116;28;20022;-84
2023/04/17 12:31:37;;;;;;;9.68;7.43;;;13.40;78.00;;;;;;5037226;28;20036;-84